Time;durP1;ratioP1;P1;durP2;ratioP2;P2;SDS_P1;SDS_P2;PMS_P1;PMS_P2;Temp;Humidity;BMP_temperature;BMP_pressure;BME280_temperature;BME280_humidity;BME280_pressure;Samples;Min_cycle;Max_cycle;Signal;HPM_P1;HPM_P2
2021/04/16 00:01:31;;;;;;;5.88;2.85;;;5.60;86.60;;;;;;6120344;23;20136;-82
2021/04/16 00:03:57;;;;;;;7.03;2.72;;;5.50;87.00;;;;;;6155613;23;20018;-83
2021/04/16 00:06:28;;;;;;;5.65;2.53;;;5.50;87.20;;;;;;6154083;23;20460;-83
2021/04/16 00:12:56;;;;;;;5.13;2.47;;;5.40;87.20;;;;;;6154839;23;20140;-82
2021/04/16 00:15:25;;;;;;;6.13;2.80;;;5.30;86.40;;;;;;6007845;23;20033;-82
2021/04/16 00:18:02;;;;;;;6.38;2.90;;;5.30;87.20;;;;;;6135099;23;20458;-83
2021/04/16 00:20:29;;;;;;;5.38;2.33;;;5.30;87.60;;;;;;6154192;23;20017;-81
2021/04/16 00:22:56;;;;;;;6.40;2.70;;;5.30;87.40;;;;;;6155236;23;20449;-82
2021/04/16 00:25:54;;;;;;;5.30;2.63;;;5.30;87.60;;;;;;6154714;23;20096;-82
2021/04/16 00:28:21;;;;;;;7.55;2.72;;;5.20;87.20;;;;;;6133211;23;20013;-82
2021/04/16 00:30:50;;;;;;;5.18;2.50;;;5.20;87.60;;;;;;6155391;23;20013;-82
2021/04/16 00:33:19;;;;;;;5.82;2.65;;;5.20;87.60;;;;;;6155136;23;20021;-82
2021/04/16 00:35:48;;;;;;;6.18;2.50;;;5.20;87.40;;;;;;6154257;23;20013;-82
2021/04/16 00:38:17;;;;;;;6.85;2.30;;;5.10;87.40;;;;;;6155358;23;20017;-82
2021/04/16 00:40:51;;;;;;;7.43;2.67;;;5.10;87.50;;;;;;6156399;23;20018;-82
2021/04/16 00:43:20;;;;;;;5.32;2.80;;;5.10;87.60;;;;;;6157061;23;20017;-82
2021/04/16 00:45:46;;;;;;;7.63;2.97;;;5.10;87.90;;;;;;6157106;23;20024;-82
2021/04/16 00:48:36;;;;;;;5.85;2.53;;;5.10;88.00;;;;;;6155775;23;20394;-81
2021/04/16 00:51:06;;;;;;;5.82;2.45;;;5.00;87.90;;;;;;6157182;23;20088;-83
2021/04/16 00:53:35;;;;;;;6.47;2.58;;;5.00;88.40;;;;;;6156454;23;20417;-83
2021/04/16 00:56:02;;;;;;;7.18;2.40;;;5.00;88.40;;;;;;6156187;23;20065;-82
2021/04/16 00:58:30;;;;;;;5.82;2.30;;;5.00;88.40;;;;;;6156447;23;20462;-82
2021/04/16 01:03:28;;;;;;;5.28;2.28;;;4.90;88.30;;;;;;6154018;23;20030;-80
2021/04/16 01:06:01;;;;;;;6.57;2.78;;;4.90;88.30;;;;;;6156483;23;20018;-80
2021/04/16 01:08:27;;;;;;;5.07;2.30;;;4.80;88.70;;;;;;6156833;23;20021;-80
2021/04/16 01:11:00;;;;;;;5.18;2.15;;;4.80;88.30;;;;;;6156010;23;20092;-80
2021/04/16 01:14:03;;;;;;;5.05;2.55;;;4.80;88.60;;;;;;6156594;23;20076;-80
2021/04/16 01:16:32;;;;;;;5.47;2.50;;;4.80;88.30;;;;;;6155595;23;20022;-80
2021/04/16 01:20:06;;;;;;;6.20;2.50;;;4.70;88.40;;;;;;6037009;23;20390;-80
2021/04/16 01:22:52;;;;;;;6.32;2.50;;;4.70;88.40;;;;;;5953127;24;20077;-80
2021/04/16 01:25:25;;;;;;;6.82;2.72;;;4.70;88.60;;;;;;5979618;24;20507;-80
2021/04/16 01:27:55;;;;;;;4.57;2.20;;;4.70;88.90;;;;;;5980974;24;20043;-80
2021/04/16 01:30:27;;;;;;;5.72;2.45;;;4.60;88.40;;;;;;6063088;23;20014;-81
2021/04/16 01:33:08;;;;;;;6.05;2.58;;;4.60;88.60;;;;;;6156987;23;20076;-80
2021/04/16 01:36:16;;;;;;;6.40;2.90;;;4.60;88.40;;;;;;6156611;23;20446;-81
2021/04/16 01:39:03;;;;;;;5.47;2.10;;;4.50;88.40;;;;;;6155208;23;20013;-81
2021/04/16 01:41:31;;;;;;;5.10;2.28;;;4.50;88.30;;;;;;6156457;23;20032;-80
2021/04/16 01:44:04;;;;;;;5.75;2.47;;;4.50;88.30;;;;;;6155816;23;20017;-80
2021/04/16 01:46:47;;;;;;;6.28;2.40;;;4.40;88.30;;;;;;6156264;23;20095;-81
2021/04/16 01:49:15;;;;;;;4.65;2.30;;;4.40;88.10;;;;;;6155878;23;20025;-80
2021/04/16 01:51:44;;;;;;;6.57;2.70;;;4.40;88.00;;;;;;6155518;23;20018;-81
2021/04/16 01:54:28;;;;;;;6.20;2.55;;;4.30;88.20;;;;;;6156342;23;20075;-80
2021/04/16 01:57:03;;;;;;;5.72;2.50;;;4.30;88.50;;;;;;6156545;23;20025;-81
2021/04/16 01:59:31;;;;;;;5.57;2.70;;;4.30;88.60;;;;;;6154973;23;20032;-80
2021/04/16 02:02:01;;;;;;;5.95;2.40;;;4.20;88.40;;;;;;6155602;23;20028;-80
2021/04/16 02:04:31;;;;;;;6.80;2.60;;;4.20;88.30;;;;;;6156010;23;20132;-80
2021/04/16 02:07:03;;;;;;;5.80;2.60;;;4.20;88.40;;;;;;6154994;23;20454;-80
2021/04/16 02:09:42;;;;;;;6.38;2.38;;;4.20;88.70;;;;;;6155675;23;20049;-80
2021/04/16 02:12:28;;;;;;;7.00;2.47;;;4.20;88.90;;;;;;6143439;23;20087;-81
2021/04/16 02:18:43;;;;;;;6.43;2.63;;;4.10;89.00;;;;;;6156083;23;20020;-80
2021/04/16 02:21:11;;;;;;;;;;;4.10;89.20;;;;;;6155495;23;20068;-79
2021/04/16 02:30:33;;;;;;;5.40;2.13;;;4.00;89.30;;;;;;6036543;23;20048;-80
2021/04/16 02:32:59;;;;;;;6.63;2.60;;;4.00;88.90;;;;;;6037114;23;20027;-80
2021/04/16 02:35:39;;;;;;;5.57;2.55;;;4.00;89.00;;;;;;6144860;23;20086;-80
2021/04/16 02:38:05;;;;;;;5.95;2.45;;;3.90;89.30;;;;;;6155479;23;20022;-80
2021/04/16 02:40:39;;;;;;;5.18;2.13;;;4.00;89.00;;;;;;6154666;23;20049;-80
2021/04/16 02:43:05;;;;;;;5.47;2.40;;;3.90;89.20;;;;;;6155000;23;20045;-80
2021/04/16 02:45:31;;;;;;;7.07;2.67;;;3.90;89.40;;;;;;6155391;23;20021;-80
2021/04/16 02:48:00;;;;;;;5.13;2.40;;;3.90;89.40;;;;;;6153763;23;20446;-80
2021/04/16 02:50:28;;;;;;;6.75;2.60;;;3.90;89.30;;;;;;6155028;23;20048;-80
2021/04/16 02:53:00;;;;;;;6.28;2.38;;;3.80;89.50;;;;;;6155863;23;20096;-80
2021/04/16 02:55:26;;;;;;;4.57;2.40;;;3.80;89.50;;;;;;6153924;23;20440;-80
2021/04/16 02:57:51;;;;;;;6.25;2.08;;;3.80;89.10;;;;;;6155906;23;20022;-80
2021/04/16 03:00:23;;;;;;;5.43;2.20;;;3.80;89.10;;;;;;6154876;23;20096;-80
2021/04/16 03:02:55;;;;;;;5.32;2.20;;;3.70;89.10;;;;;;6154493;23;20045;-82
2021/04/16 03:05:23;;;;;;;4.68;2.40;;;3.80;89.00;;;;;;6155295;23;20430;-81
2021/04/16 03:07:53;;;;;;;5.53;2.03;;;3.70;89.10;;;;;;6155788;23;20049;-81
2021/04/16 03:10:22;;;;;;;6.15;2.20;;;3.70;89.10;;;;;;6153868;23;20462;-81
2021/04/16 03:12:48;;;;;;;5.68;2.35;;;3.60;88.70;;;;;;6155758;23;20024;-81
2021/04/16 03:15:19;;;;;;;7.25;2.13;;;3.60;88.60;;;;;;6154283;23;20028;-81
2021/04/16 03:17:45;;;;;;;6.05;2.20;;;3.60;88.70;;;;;;6155377;23;20021;-81
2021/04/16 03:20:11;;;;;;;6.82;2.30;;;3.60;88.80;;;;;;6155262;23;20465;-81
2021/04/16 03:22:39;;;;;;;6.28;2.70;;;3.60;88.80;;;;;;6154351;23;20508;-81
2021/04/16 03:25:10;;;;;;;7.43;2.60;;;3.50;88.90;;;;;;6155251;23;20017;-81
2021/04/16 03:27:37;;;;;;;4.90;2.05;;;3.50;89.10;;;;;;6155712;23;20021;-79
2021/04/16 03:30:06;;;;;;;5.18;2.30;;;3.50;89.10;;;;;;6154473;23;20103;-81
2021/04/16 03:32:34;;;;;;;6.03;2.60;;;3.50;89.10;;;;;;6154739;23;20030;-81
2021/04/16 03:34:59;;;;;;;6.28;2.50;;;3.50;89.10;;;;;;6155295;23;20328;-81
2021/04/16 03:37:28;;;;;;;5.90;2.05;;;3.50;89.10;;;;;;6154357;23;20022;-80
2021/04/16 03:39:59;;;;;;;5.03;2.30;;;3.40;89.40;;;;;;6155890;23;20021;-81
2021/04/16 03:42:27;;;;;;;4.97;2.53;;;3.40;89.40;;;;;;6154461;23;20469;-81
2021/04/16 03:44:58;;;;;;;6.28;2.80;;;3.40;89.40;;;;;;6154495;23;20101;-82
2021/04/16 03:47:24;;;;;;;5.20;2.15;;;3.40;89.60;;;;;;6154879;23;20022;-82
2021/04/16 03:49:58;;;;;;;5.90;2.40;;;3.40;89.40;;;;;;6127766;23;20014;-81
2021/04/16 03:53:06;;;;;;;6.22;2.13;;;3.40;89.30;;;;;;6154207;23;20393;-79
2021/04/16 03:55:46;;;;;;;6.88;2.60;;;3.40;89.10;;;;;;6083926;23;20017;-80
2021/04/16 03:58:12;;;;;;;4.53;2.50;;;3.30;89.50;;;;;;6154027;23;20021;-80
2021/04/16 04:01:02;;;;;;;6.25;2.70;;;3.30;89.70;;;;;;6155229;23;20010;-80
2021/04/16 04:03:39;;;;;;;7.20;2.40;;;3.30;89.90;;;;;;6149106;23;20467;-80
2021/04/16 04:06:06;;;;;;;6.93;2.50;;;3.30;90.00;;;;;;6154543;23;20017;-80
2021/04/16 04:08:35;;;;;;;5.43;2.30;;;3.30;90.00;;;;;;6154722;23;20171;-80
2021/04/16 04:11:04;;;;;;;6.40;2.63;;;3.30;90.10;;;;;;6155385;23;20010;-81
2021/04/16 04:13:31;;;;;;;6.00;2.58;;;3.30;90.10;;;;;;6153511;23;20021;-80
2021/04/16 04:15:59;;;;;;;5.57;2.33;;;3.30;90.10;;;;;;6155142;23;20093;-80
2021/04/16 04:18:29;;;;;;;6.57;2.38;;;3.30;90.10;;;;;;6154817;23;20014;-80
2021/04/16 04:20:55;;;;;;;7.45;2.85;;;3.30;90.00;;;;;;6154318;23;20041;-80
2021/04/16 04:23:21;;;;;;;6.43;2.70;;;3.20;90.00;;;;;;6154280;23;20480;-80
2021/04/16 04:25:47;;;;;;;6.97;2.55;;;3.20;90.00;;;;;;6154225;23;20021;-80
2021/04/16 04:28:12;;;;;;;6.25;2.70;;;3.20;90.00;;;;;;6154777;23;20021;-80
2021/04/16 04:30:38;;;;;;;4.70;2.30;;;3.20;90.00;;;;;;6154694;23;20013;-81
2021/04/16 04:33:05;;;;;;;7.03;2.80;;;3.10;89.80;;;;;;6154005;23;20017;-81
2021/04/16 04:35:32;;;;;;;5.55;2.40;;;3.10;90.00;;;;;;6154803;23;20024;-80
2021/04/16 04:37:58;;;;;;;6.63;2.72;;;3.10;90.00;;;;;;6154345;23;20018;-80
2021/04/16 04:40:26;;;;;;;7.32;3.05;;;3.10;90.00;;;;;;6153512;23;20073;-80
2021/04/16 04:42:55;;;;;;;5.90;2.33;;;3.00;90.00;;;;;;6155070;23;20098;-80
2021/04/16 04:45:27;;;;;;;7.70;2.50;;;3.00;89.90;;;;;;6154469;23;20021;-81
2021/04/16 04:48:41;;;;;;;5.82;2.58;;;3.00;90.00;;;;;;6153508;23;20017;-80
2021/04/16 04:52:12;;;;;;;;;;;;;;;;;;;;;
2021/04/16 04:55:47;;;;;;;7.15;2.67;;;2.90;89.70;;;;;;6039694;23;20338;-80
2021/04/16 04:58:42;;;;;;;8.82;3.00;;;2.90;89.60;;;;;;6154394;23;20017;-80
2021/04/16 05:01:18;;;;;;;6.88;2.88;;;2.90;89.40;;;;;;6153464;23;20017;-81
2021/04/16 05:04:05;;;;;;;5.60;2.47;;;2.90;89.50;;;;;;6153903;23;20021;-81
2021/04/16 05:06:35;;;;;;;7.95;2.70;;;2.80;89.70;;;;;;6153663;23;20025;-79
2021/04/16 05:09:00;;;;;;;5.28;2.85;;;2.80;89.70;;;;;;6152300;23;20402;-80
2021/04/16 05:11:26;;;;;;;6.70;2.65;;;2.80;89.50;;;;;;6153736;23;20014;-82
2021/04/16 05:13:58;;;;;;;9.00;3.28;;;2.80;89.80;;;;;;6153503;23;20032;-81
2021/04/16 05:16:23;;;;;;;6.88;2.83;;;2.80;89.80;;;;;;6153878;23;20014;-82
2021/04/16 05:18:57;;;;;;;9.52;3.22;;;2.80;89.80;;;;;;6154889;23;20139;-82
2021/04/16 05:21:29;;;;;;;7.13;3.47;;;2.80;89.90;;;;;;6154719;23;20014;-81
2021/04/16 05:23:56;;;;;;;6.20;3.15;;;2.80;89.60;;;;;;6153575;23;20454;-82
2021/04/16 05:26:39;;;;;;;6.90;3.08;;;2.80;90.00;;;;;;6155975;23;20017;-82
2021/04/16 05:29:06;;;;;;;7.47;3.08;;;2.80;90.10;;;;;;6155975;23;20026;-84
2021/04/16 05:31:32;;;;;;;6.32;2.90;;;2.80;90.00;;;;;;6156587;23;20028;-84
2021/04/16 05:33:59;;;;;;;8.45;3.08;;;2.80;90.00;;;;;;6156827;23;20017;-85
2021/04/16 05:36:25;;;;;;;7.97;3.30;;;2.80;90.00;;;;;;6155707;23;20021;-84
2021/04/16 05:38:51;;;;;;;10.65;4.13;;;2.80;90.00;;;;;;6156094;23;20024;-83
2021/04/16 05:41:20;;;;;;;9.85;3.38;;;2.90;90.10;;;;;;6156277;23;20018;-83
2021/04/16 05:43:45;;;;;;;10.68;3.75;;;2.90;90.10;;;;;;6155558;23;20057;-82
2021/04/16 05:46:12;;;;;;;8.40;3.13;;;2.90;90.10;;;;;;6155852;23;20013;-80
2021/04/16 05:48:37;;;;;;;6.68;3.13;;;2.90;90.00;;;;;;6156609;23;20018;-81
2021/04/16 05:51:04;;;;;;;7.80;3.03;;;2.90;90.00;;;;;;6155587;23;20453;-80
2021/04/16 05:53:30;;;;;;;8.98;3.05;;;3.00;90.00;;;;;;6155598;23;20589;-81
2021/04/16 05:55:56;;;;;;;9.88;2.78;;;2.90;89.80;;;;;;6156733;23;20049;-79
2021/04/16 05:58:22;;;;;;;8.80;3.35;;;2.90;89.40;;;;;;6153541;23;20028;-82
2021/04/16 06:00:48;;;;;;;12.70;3.58;;;2.90;89.60;;;;;;6154620;23;20021;-80
2021/04/16 06:03:17;;;;;;;12.23;4.20;;;3.00;90.10;;;;;;6155197;23;20484;-80
2021/04/16 06:05:43;;;;;;;7.60;3.08;;;3.00;90.10;;;;;;6155715;23;20072;-79
2021/04/16 06:08:09;;;;;;;7.53;3.08;;;3.00;90.00;;;;;;6156321;23;20017;-79
2021/04/16 06:10:35;;;;;;;7.53;2.83;;;3.10;89.90;;;;;;6156670;23;20024;-80
2021/04/16 06:13:01;;;;;;;6.05;2.90;;;3.10;89.60;;;;;;6155685;23;20017;-78
2021/04/16 06:15:28;;;;;;;10.00;3.45;;;3.10;89.30;;;;;;6156158;23;20025;-80
2021/04/16 06:17:55;;;;;;;8.85;3.40;;;3.10;90.10;;;;;;6156573;23;20059;-79
2021/04/16 06:20:25;;;;;;;9.52;3.80;;;3.20;89.80;;;;;;6155167;23;20018;-79
2021/04/16 06:22:52;;;;;;;8.15;3.13;;;3.30;90.20;;;;;;6156555;23;20025;-80
2021/04/16 06:25:22;;;;;;;7.57;3.40;;;3.30;90.30;;;;;;6154925;23;20068;-80
2021/04/16 06:27:50;;;;;;;8.10;3.03;;;3.40;90.40;;;;;;6155964;23;20118;-80
2021/04/16 06:30:19;;;;;;;8.35;3.30;;;3.50;90.40;;;;;;6155718;23;20457;-80
2021/04/16 06:33:08;;;;;;;9.27;3.17;;;3.60;90.60;;;;;;6155552;23;20018;-80
2021/04/16 06:35:35;;;;;;;9.27;3.25;;;3.70;90.50;;;;;;6136240;23;20533;-81
2021/04/16 06:38:02;;;;;;;8.43;3.35;;;3.80;90.50;;;;;;6156143;23;20342;-81
2021/04/16 06:40:30;;;;;;;10.10;3.40;;;3.90;90.50;;;;;;6155046;23;20479;-81
2021/04/16 06:42:59;;;;;;;8.50;2.65;;;4.00;90.50;;;;;;6155442;23;20021;-81
2021/04/16 06:45:29;;;;;;;9.18;2.63;;;4.10;90.50;;;;;;6137342;23;20017;-83
2021/04/16 06:47:59;;;;;;;10.18;3.30;;;4.20;90.40;;;;;;6153665;23;20052;-83
2021/04/16 06:50:32;;;;;;;10.43;2.80;;;4.30;90.50;;;;;;6154571;23;20041;-83
2021/04/16 06:53:13;;;;;;;9.57;3.05;;;4.40;90.40;;;;;;6155374;23;20021;-83
2021/04/16 06:56:22;;;;;;;10.77;3.30;;;4.60;90.50;;;;;;6154728;23;20018;-84
2021/04/16 06:59:03;;;;;;;8.57;2.63;;;4.70;90.70;;;;;;6145572;23;20021;-81
2021/04/16 07:01:44;;;;;;;6.55;2.50;;;4.90;90.40;;;;;;6154059;23;20017;-81
2021/04/16 07:04:37;;;;;;;7.97;3.00;;;5.00;90.00;;;;;;6153516;23;20052;-79
2021/04/16 07:07:30;;;;;;;10.98;2.70;;;5.10;89.80;;;;;;6154211;23;20509;-78
2021/04/16 07:10:16;;;;;;;9.63;2.97;;;5.20;89.70;;;;;;6155107;23;20017;-79
2021/04/16 07:12:44;;;;;;;9.15;2.70;;;5.30;89.70;;;;;;6154579;23;20032;-78
2021/04/16 07:15:29;;;;;;;7.07;2.45;;;5.40;89.70;;;;;;6154479;23;20047;-79
2021/04/16 07:17:55;;;;;;;11.27;2.72;;;5.50;89.40;;;;;;6155662;23;20133;-79
2021/04/16 07:20:23;;;;;;;7.60;2.70;;;5.60;89.20;;;;;;6155211;23;20072;-79
2021/04/16 07:22:51;;;;;;;12.65;2.33;;;5.70;88.90;;;;;;6154660;23;20088;-79
2021/04/16 07:25:42;;;;;;;11.55;2.85;;;5.80;88.80;;;;;;6154726;23;20068;-80
2021/04/16 07:28:11;;;;;;;8.35;2.20;;;5.90;88.90;;;;;;6155105;23;20021;-80
2021/04/16 07:30:49;;;;;;;5.53;2.00;;;6.00;88.60;;;;;;6154481;23;20342;-80
2021/04/16 07:33:27;;;;;;;6.65;2.40;;;6.10;88.10;;;;;;6154864;23;20040;-79
2021/04/16 07:36:23;;;;;;;9.30;2.65;;;6.20;87.90;;;;;;6113752;23;20040;-80
2021/04/16 07:39:32;;;;;;;8.75;2.20;;;6.20;87.90;;;;;;6155175;23;20093;-80
2021/04/16 07:42:47;;;;;;;7.97;2.03;;;6.40;87.50;;;;;;5948539;23;20032;-79
2021/04/16 07:45:24;;;;;;;7.93;2.22;;;6.50;87.00;;;;;;6001661;23;20024;-81
2021/04/16 07:48:30;;;;;;;7.22;2.15;;;6.60;86.60;;;;;;6006856;23;20024;-81
2021/04/16 07:50:58;;;;;;;6.13;2.05;;;6.70;86.10;;;;;;6006697;23;20020;-81
2021/04/16 07:53:39;;;;;;;8.70;2.80;;;6.90;85.80;;;;;;6144918;23;20014;-81
2021/04/16 07:56:38;;;;;;;6.30;2.17;;;7.00;85.90;;;;;;6155223;23;20018;-82
2021/04/16 07:59:24;;;;;;;7.63;2.10;;;7.10;85.80;;;;;;6154459;23;20028;-87
2021/04/16 08:02:30;;;;;;;8.45;2.00;;;7.20;85.70;;;;;;6154951;23;20022;-83
2021/04/16 08:04:59;;;;;;;6.40;2.05;;;7.30;85.40;;;;;;6153579;23;20017;-85
2021/04/16 08:08:03;;;;;;;9.20;2.20;;;7.40;85.20;;;;;;6154176;23;20018;-84
2021/04/16 08:10:59;;;;;;;;;;;7.60;84.90;;;;;;6150991;23;20022;-83
2021/04/16 08:14:23;;;;;;;6.93;1.70;;;7.60;84.40;;;;;;6154534;23;19917;-85
2021/04/16 08:17:05;;;;;;;5.85;2.10;;;7.80;83.80;;;;;;5995023;23;20023;-87
2021/04/16 08:41:22;;;;;;;5.75;1.42;;;8.60;79.80;;;;;;6092890;23;20029;-87
2021/04/16 08:45:16;;;;;;;4.82;1.35;;;8.80;79.70;;;;;;6095145;23;20394;-85
2021/04/16 08:52:03;;;;;;;3.85;1.27;;;9.00;79.50;;;;;;6063382;23;20028;-84
2021/04/16 08:55:01;;;;;;;3.90;1.27;;;9.20;80.10;;;;;;6184187;23;20076;-84
2021/04/16 08:58:30;;;;;;;3.83;1.27;;;9.30;80.40;;;;;;6184473;23;20496;-84
2021/04/16 09:05:03;;;;;;;2.75;1.30;;;9.50;79.40;;;;;;6156684;23;20025;-84
2021/04/16 09:08:06;;;;;;;3.75;1.13;;;9.60;78.70;;;;;;6152497;23;20022;-84
2021/04/16 09:11:03;;;;;;;3.22;1.30;;;9.70;78.00;;;;;;6088405;23;20017;-82
2021/04/16 09:14:29;;;;;;;3.30;1.10;;;9.80;78.30;;;;;;6157470;23;20021;-83
2021/04/16 09:17:08;;;;;;;5.63;1.42;;;9.90;78.70;;;;;;6003364;23;20020;-82
2021/04/16 09:26:09;;;;;;;3.30;1.20;;;10.20;73.90;;;;;;6179008;23;20040;-86
2021/04/16 09:29:26;;;;;;;4.07;0.90;;;10.30;72.80;;;;;;6152850;23;20316;-84
2021/04/16 09:32:31;;;;;;;3.70;1.20;;;10.40;68.60;;;;;;6187040;23;20013;-81
2021/04/16 09:42:26;;;;;;;3.00;1.00;;;10.70;69.10;;;;;;6038366;23;20054;-83
2021/04/16 09:45:06;;;;;;;4.93;1.40;;;10.80;70.80;;;;;;6037150;23;20098;-83
2021/04/16 09:48:09;;;;;;;3.97;1.00;;;10.90;70.80;;;;;;6037301;23;20030;-84
2021/04/16 09:51:00;;;;;;;4.75;1.20;;;11.00;68.00;;;;;;6074210;23;20096;-86
2021/04/16 09:54:07;;;;;;;3.75;1.25;;;11.10;68.50;;;;;;6151691;23;20025;-83
2021/04/16 09:57:02;;;;;;;3.70;1.10;;;11.20;68.10;;;;;;6154465;23;20053;-83
2021/04/16 09:59:44;;;;;;;6.80;1.40;;;11.30;71.10;;;;;;6155737;23;20021;-84
2021/04/16 10:02:33;;;;;;;3.00;1.00;;;11.50;72.10;;;;;;6154207;23;20433;-84
2021/04/16 10:06:03;;;;;;;5.03;1.20;;;11.50;62.80;;;;;;6122485;23;20114;-85
2021/04/16 10:09:17;;;;;;;5.32;1.17;;;11.60;67.30;;;;;;6155909;23;20091;-85
2021/04/16 10:12:14;;;;;;;3.72;1.23;;;11.80;64.90;;;;;;6154921;23;20513;-85
2021/04/16 10:14:42;;;;;;;3.20;1.10;;;11.80;65.10;;;;;;6156395;23;20044;-85
2021/04/16 10:17:11;;;;;;;2.97;1.00;;;11.90;66.10;;;;;;6155790;23;20021;-84
2021/04/16 10:20:14;;;;;;;5.25;1.23;;;12.00;63.00;;;;;;6155466;23;20025;-87
2021/04/16 10:22:41;;;;;;;4.32;1.30;;;12.10;64.60;;;;;;6096205;23;20021;-83
2021/04/16 10:32:13;;;;;;;3.85;1.20;;;12.20;61.80;;;;;;6155505;23;20147;-84
2021/04/16 10:35:04;;;;;;;4.43;1.30;;;12.20;60.00;;;;;;6155049;23;20053;-84
2021/04/16 12:40:29;;;;;;;10.10;1.80;;;14.20;56.60;;;;;;6007927;23;20016;-80
2021/04/16 12:43:16;;;;;;;5.68;1.73;;;14.30;57.60;;;;;;5951681;24;20470;-81
2021/04/16 12:45:42;;;;;;;5.97;1.77;;;14.30;57.00;;;;;;5950860;24;20028;-81
2021/04/16 12:48:17;;;;;;;4.68;1.52;;;14.30;56.70;;;;;;5952875;24;20024;-81
2021/04/16 12:55:01;;;;;;;4.60;1.65;;;14.20;55.80;;;;;;6034608;23;20053;-82
2021/04/16 12:58:18;;;;;;;;;;;;;;;;;;;;;
2021/04/16 13:14:25;;;;;;;6.50;2.10;;;14.60;57.70;;;;;;6154856;23;20063;-82
2021/04/16 13:21:08;;;;;;;;;;;;;;;;;;;;;
2021/04/16 13:24:01;;;;;;;7.97;1.55;;;14.60;53.50;;;;;;6008897;23;20068;-82
2021/04/16 13:26:45;;;;;;;;;;;14.60;55.00;;;;;;6010068;23;20428;-82
2021/04/16 13:29:11;;;;;;;6.10;1.60;;;14.50;53.90;;;;;;6147339;23;19917;-82
2021/04/16 13:31:37;;;;;;;6.70;2.10;;;14.50;56.20;;;;;;6155263;23;20084;-84
2021/04/16 13:34:06;;;;;;;5.88;2.20;;;14.50;56.10;;;;;;6155895;23;20041;-83
2021/04/16 13:36:34;;;;;;;6.28;2.10;;;14.60;56.50;;;;;;6155927;23;20339;-83
2021/04/16 13:39:04;;;;;;;6.35;1.83;;;14.50;57.00;;;;;;6155786;23;20367;-82
2021/04/16 13:41:32;;;;;;;7.57;2.08;;;14.60;57.20;;;;;;6155235;23;20021;-83
2021/04/16 13:44:07;;;;;;;8.18;2.30;;;14.60;55.30;;;;;;6156434;23;20013;-83
2021/04/16 13:46:37;;;;;;;4.90;1.88;;;14.50;55.00;;;;;;6155955;23;20021;-83
2021/04/16 13:49:20;;;;;;;5.15;2.10;;;14.40;55.80;;;;;;6154879;23;20097;-83
2021/04/16 13:51:46;;;;;;;5.63;1.67;;;14.40;54.90;;;;;;6156260;23;20091;-83
2021/04/16 13:54:21;;;;;;;5.85;2.00;;;14.40;54.30;;;;;;6155921;23;20018;-82
2021/04/16 13:57:08;;;;;;;8.43;1.98;;;14.30;53.80;;;;;;6155264;23;20024;-83
2021/04/16 13:59:44;;;;;;;;;;;;;;;;;;;;;
2021/04/16 14:02:36;;;;;;;8.13;1.95;;;14.20;54.70;;;;;;6153125;23;20384;-83
2021/04/16 14:05:09;;;;;;;8.02;2.00;;;14.30;57.00;;;;;;6155975;23;20013;-84
2021/04/16 14:07:37;;;;;;;;;;;14.30;55.70;;;;;;6157096;23;20041;-82
2021/04/16 14:10:41;;;;;;;5.60;1.90;;;14.30;53.60;;;;;;6154606;23;19927;-83
2021/04/16 14:13:32;;;;;;;7.90;1.90;;;14.40;55.70;;;;;;6008528;23;20032;-83
2021/04/16 14:16:36;;;;;;;5.45;1.98;;;14.50;54.50;;;;;;6070379;23;20020;-84
2021/04/16 14:19:13;;;;;;;5.30;1.80;;;14.40;53.80;;;;;;6156553;23;20025;-83
2021/04/16 14:21:42;;;;;;;4.63;1.50;;;14.40;55.00;;;;;;6155566;23;20066;-83
2021/04/16 14:24:12;;;;;;;5.72;1.58;;;14.50;53.80;;;;;;6154421;23;20029;-84
2021/04/16 14:26:41;;;;;;;5.80;1.75;;;14.40;54.00;;;;;;6155034;23;20350;-86
2021/04/16 14:29:07;;;;;;;8.00;1.90;;;14.40;52.00;;;;;;6154977;23;20018;-84
2021/04/16 14:31:45;;;;;;;5.15;1.92;;;14.30;52.80;;;;;;6154326;23;20113;-84
2021/04/16 14:34:37;;;;;;;11.85;2.05;;;14.20;55.40;;;;;;6155904;23;20383;-84
2021/04/16 14:37:02;;;;;;;5.90;1.80;;;14.30;57.90;;;;;;6156567;23;20408;-84
2021/04/16 14:39:28;;;;;;;7.07;1.77;;;14.50;57.80;;;;;;6153966;23;20040;-83
2021/04/16 14:41:56;;;;;;;8.00;2.20;;;14.60;59.60;;;;;;6155703;23;20541;-82
2021/04/16 14:44:25;;;;;;;5.80;2.10;;;14.70;60.60;;;;;;6154709;23;20364;-83
2021/04/16 14:46:53;;;;;;;9.52;1.80;;;14.70;61.80;;;;;;6155254;23;20048;-82
2021/04/16 14:49:21;;;;;;;5.18;1.80;;;14.80;62.70;;;;;;6156115;23;20037;-83
2021/04/16 14:51:48;;;;;;;7.47;1.95;;;14.90;62.20;;;;;;6154909;23;20090;-84
2021/04/16 14:54:27;;;;;;;5.50;1.85;;;14.90;62.30;;;;;;6155794;23;20021;-82
2021/04/16 14:56:54;;;;;;;5.55;1.80;;;15.00;62.60;;;;;;6155994;23;20474;-83
2021/04/16 14:59:37;;;;;;;9.30;1.70;;;15.00;62.60;;;;;;6154160;23;20021;-82
2021/04/16 15:02:02;;;;;;;4.43;1.73;;;15.00;61.40;;;;;;6155938;23;20032;-83
2021/04/16 15:04:28;;;;;;;4.93;1.75;;;15.00;64.20;;;;;;6154707;23;20022;-83
2021/04/16 15:06:57;;;;;;;5.65;1.60;;;15.00;61.80;;;;;;6154641;23;20040;-82
2021/04/16 15:09:24;;;;;;;4.88;1.48;;;15.00;63.20;;;;;;6154438;23;20032;-83
2021/04/16 15:11:52;;;;;;;5.10;1.40;;;15.10;64.00;;;;;;6155826;23;20024;-83
2021/04/16 15:14:28;;;;;;;6.28;1.58;;;15.10;63.20;;;;;;6154390;23;20021;-83
2021/04/16 15:16:55;;;;;;;4.20;1.70;;;15.20;63.40;;;;;;6156105;23;20021;-83
2021/04/16 15:19:36;;;;;;;3.28;1.25;;;15.30;65.30;;;;;;6155333;23;20513;-83
2021/04/16 15:22:15;;;;;;;4.30;1.50;;;15.40;62.00;;;;;;6154842;23;20018;-83
2021/04/16 15:24:42;;;;;;;5.22;1.10;;;15.40;63.10;;;;;;6155210;23;20013;-84
2021/04/16 15:27:12;;;;;;;4.20;1.20;;;15.40;59.40;;;;;;6153936;23;20391;-83
2021/04/16 15:29:40;;;;;;;6.72;1.20;;;15.40;62.30;;;;;;6155335;23;20049;-83
2021/04/16 15:32:11;;;;;;;4.78;1.13;;;15.40;61.80;;;;;;6155148;23;20068;-83
2021/04/16 15:49:18;;;;;;;;;;;15.20;66.00;;;;;;6154875;23;20032;-81
2021/04/16 15:53:04;;;;;;;4.40;1.70;;;15.20;64.40;;;;;;6154038;23;19912;-86
2021/04/16 15:55:45;;;;;;;;;;;;;;;;;;;;;
2021/04/16 15:58:35;;;;;;;4.13;1.55;;;15.20;69.20;;;;;;6007879;23;20016;-84
2021/04/16 16:01:04;;;;;;;3.55;1.25;;;15.10;70.60;;;;;;6007606;23;20468;-83
2021/04/16 16:03:41;;;;;;;5.68;1.98;;;15.10;62.90;;;;;;6006428;23;20091;-82
2021/04/16 16:06:12;;;;;;;6.68;2.08;;;15.10;69.30;;;;;;6042652;23;20021;-83
2021/04/16 16:08:40;;;;;;;5.35;1.67;;;15.10;71.80;;;;;;6153863;23;20478;-84
2021/04/16 16:11:09;;;;;;;4.35;2.10;;;15.20;71.90;;;;;;6154757;23;20017;-84
2021/04/16 16:17:46;;;;;;;7.15;1.80;;;15.30;71.70;;;;;;6154741;23;20018;-85
2021/04/16 16:20:24;;;;;;;;;;;;;;;;;;;;;
2021/04/16 16:29:37;;;;;;;4.78;2.00;;;15.20;73.30;;;;;;6154946;23;20096;-84
2021/04/16 16:32:58;;;;;;;;;;;;;;;;;;;;;
2021/04/16 16:38:29;;;;;;;5.35;2.33;;;15.10;61.60;;;;;;6152880;23;20022;-85
2021/04/16 16:56:14;;;;;;;4.22;2.50;;;14.90;73.40;;;;;;5897130;24;20066;-84
2021/04/16 16:59:01;;;;;;;5.75;2.70;;;15.00;75.90;;;;;;5907607;24;20025;-84
2021/04/16 17:01:31;;;;;;;5.13;2.65;;;15.10;74.90;;;;;;5951726;24;20347;-84
2021/04/16 17:03:59;;;;;;;5.78;2.47;;;15.10;72.90;;;;;;5951948;24;20017;-84
2021/04/16 17:06:33;;;;;;;5.55;2.63;;;15.10;75.40;;;;;;5996455;23;20087;-84
2021/04/16 17:08:58;;;;;;;4.35;2.50;;;15.10;77.00;;;;;;6101493;23;20022;-84
2021/04/16 17:11:28;;;;;;;4.43;2.30;;;15.20;78.30;;;;;;6155326;23;20020;-84
2021/04/16 17:14:02;;;;;;;5.47;2.90;;;15.20;78.30;;;;;;6154352;23;20029;-84
2021/04/16 17:16:27;;;;;;;5.93;2.50;;;15.30;78.70;;;;;;6155138;23;20076;-84
2021/04/16 17:18:53;;;;;;;6.25;2.75;;;15.30;78.40;;;;;;6155550;23;20017;-84
2021/04/16 17:21:24;;;;;;;6.53;2.90;;;15.30;79.00;;;;;;6155990;23;20040;-84
2021/04/16 17:23:53;;;;;;;6.30;2.88;;;15.20;76.00;;;;;;6156808;23;20457;-84
2021/04/16 17:26:28;;;;;;;7.80;2.90;;;15.10;77.70;;;;;;6156318;23;20072;-84
2021/04/16 17:29:00;;;;;;;6.00;2.95;;;15.10;75.90;;;;;;6157281;23;20022;-84
2021/04/16 17:31:26;;;;;;;6.32;3.10;;;15.10;78.20;;;;;;6156722;23;20045;-84
2021/04/16 17:33:53;;;;;;;6.45;2.85;;;15.10;77.10;;;;;;6156339;23;20013;-83
2021/04/16 17:36:23;;;;;;;5.97;2.75;;;15.10;78.30;;;;;;6156914;23;20036;-83
2021/04/16 17:38:50;;;;;;;6.18;2.90;;;15.10;77.20;;;;;;6156216;23;20068;-82
2021/04/16 17:41:24;;;;;;;7.47;3.17;;;15.00;77.70;;;;;;6156095;23;20089;-82
2021/04/16 17:44:02;;;;;;;6.40;3.05;;;15.00;75.40;;;;;;6156783;23;20021;-82
2021/04/16 17:46:28;;;;;;;5.65;2.92;;;15.00;76.50;;;;;;6156628;23;20021;-82
2021/04/16 17:48:54;;;;;;;5.07;3.20;;;15.00;75.80;;;;;;6155785;23;20028;-83
2021/04/16 17:51:24;;;;;;;5.75;3.20;;;15.00;76.30;;;;;;6156534;23;20024;-82
2021/04/16 17:54:03;;;;;;;6.93;3.50;;;14.90;74.70;;;;;;6156698;23;20029;-83
2021/04/16 17:56:31;;;;;;;6.50;3.55;;;14.90;76.10;;;;;;6155423;23;20076;-83
2021/04/16 17:59:10;;;;;;;7.57;3.53;;;14.80;77.10;;;;;;6156571;23;20013;-82
2021/04/16 18:01:39;;;;;;;8.02;3.95;;;14.80;77.80;;;;;;6156226;23;20076;-83
2021/04/16 18:04:05;;;;;;;10.85;5.05;;;14.80;78.80;;;;;;6156638;23;20017;-84
2021/04/16 18:06:43;;;;;;;10.00;5.45;;;14.80;78.70;;;;;;6155433;23;20028;-83
2021/04/16 18:09:15;;;;;;;8.10;4.50;;;14.80;75.50;;;;;;6155300;23;20037;-83